createdAt,value
2019-03-27T00:01:48.816Z,25.43
2019-03-27T00:04:20.043Z,18.07
2019-03-27T00:06:51.101Z,17.80
2019-03-27T00:09:22.153Z,19.30
2019-03-27T00:11:53.185Z,21.47
2019-03-27T00:14:24.251Z,20.40
2019-03-27T00:16:55.482Z,24.33
2019-03-27T00:19:26.525Z,20.97
2019-03-27T00:21:58.076Z,22.83
2019-03-27T00:24:29.035Z,20.30
2019-03-27T00:26:59.973Z,16.67
2019-03-27T00:29:30.949Z,19.57
2019-03-27T00:32:01.999Z,20.63
2019-03-27T00:34:33.033Z,20.03
2019-03-27T00:37:04.109Z,22.00
2019-03-27T00:39:35.154Z,21.17
2019-03-27T00:42:06.251Z,17.67
2019-03-27T00:44:37.262Z,20.10
2019-03-27T00:47:08.267Z,18.70
2019-03-27T00:49:39.292Z,21.33
2019-03-27T00:52:10.249Z,21.23
2019-03-27T00:54:41.226Z,23.23
2019-03-27T00:57:12.363Z,27.13
2019-03-27T00:59:43.385Z,20.00
2019-03-27T01:02:14.495Z,19.20
2019-03-27T01:04:45.515Z,23.13
2019-03-27T01:07:16.557Z,22.03
2019-03-27T01:09:47.523Z,21.63
2019-03-27T01:12:18.543Z,21.47
2019-03-27T01:14:49.602Z,36.50
2019-03-27T01:17:20.764Z,21.97
2019-03-27T01:19:51.915Z,21.73
2019-03-27T01:22:22.933Z,22.57
2019-03-27T01:24:53.988Z,26.20
2019-03-27T01:27:24.999Z,24.50
2019-03-27T01:29:55.980Z,24.53
2019-03-27T01:32:27.021Z,23.60
2019-03-27T01:34:58.043Z,25.07
2019-03-27T01:37:29.020Z,23.90
2019-03-27T01:40:00.375Z,24.57
2019-03-27T01:42:31.349Z,25.77
2019-03-27T01:45:02.434Z,24.60
2019-03-27T01:47:33.541Z,25.20
2019-03-27T01:50:07.339Z,25.60
2019-03-27T01:52:38.411Z,20.73
2019-03-27T01:55:10.036Z,21.07
2019-03-27T01:57:41.003Z,26.83
2019-03-27T02:00:12.430Z,23.07
2019-03-27T02:02:43.462Z,22.73
2019-03-27T02:05:14.609Z,20.70
2019-03-27T02:07:45.580Z,22.00
2019-03-27T02:10:16.919Z,21.60
2019-03-27T02:12:47.870Z,25.00
2019-03-27T02:15:18.970Z,28.03
2019-03-27T02:17:49.859Z,22.07
2019-03-27T02:20:20.806Z,23.97
2019-03-27T02:22:51.747Z,24.23
2019-03-27T02:25:22.700Z,20.90
2019-03-27T02:27:53.605Z,23.90
2019-03-27T02:30:24.591Z,23.30
2019-03-27T02:32:55.540Z,26.87
2019-03-27T02:35:26.554Z,21.60
2019-03-27T02:37:57.551Z,20.77
2019-03-27T02:40:28.513Z,22.07
2019-03-27T02:42:59.478Z,21.60
2019-03-27T02:45:31.775Z,23.33
2019-03-27T02:48:02.813Z,25.33
2019-03-27T02:50:33.710Z,26.53
2019-03-27T02:53:04.857Z,22.10
2019-03-27T02:55:35.980Z,22.13
2019-03-27T02:58:06.882Z,24.40
2019-03-27T03:00:37.896Z,21.93
2019-03-27T03:03:08.859Z,23.50
2019-03-27T03:05:39.951Z,21.17
2019-03-27T03:08:10.910Z,22.07
2019-03-27T03:10:45.701Z,20.80
2019-03-27T03:13:14.531Z,23.00
2019-03-27T03:15:45.452Z,20.43
2019-03-27T03:18:16.397Z,21.43
2019-03-27T03:20:47.427Z,20.50
2019-03-27T03:23:18.433Z,21.97
2019-03-27T03:25:49.410Z,22.27
2019-03-27T03:28:20.370Z,21.67
2019-03-27T03:30:51.418Z,19.70
2019-03-27T03:33:22.516Z,22.07
2019-03-27T03:35:53.593Z,21.70
2019-03-27T03:38:24.512Z,18.60
2019-03-27T03:40:55.699Z,20.40
2019-03-27T03:43:26.912Z,21.00
2019-03-27T03:45:57.963Z,18.87
2019-03-27T03:48:29.105Z,18.93
2019-03-27T03:51:01.624Z,22.50
2019-03-27T03:53:33.252Z,24.00
2019-03-27T03:56:04.750Z,22.63
2019-03-27T03:58:37.937Z,17.07
2019-03-27T04:01:10.233Z,18.57
2019-03-27T04:03:43.205Z,18.03
2019-03-27T04:06:14.352Z,21.17
2019-03-27T04:08:45.230Z,22.57
2019-03-27T04:11:16.405Z,20.37
2019-03-27T04:13:47.347Z,15.87
2019-03-27T04:16:18.253Z,16.80
2019-03-27T04:18:49.285Z,16.67
2019-03-27T04:21:20.218Z,17.40
2019-03-27T04:23:51.109Z,16.07
2019-03-27T04:26:22.071Z,18.30
2019-03-27T04:28:53.065Z,18.90
2019-03-27T04:31:23.981Z,21.53
2019-03-27T04:33:54.954Z,16.93
2019-03-27T04:36:25.881Z,17.73
2019-03-27T04:38:56.766Z,16.90
2019-03-27T04:41:27.675Z,18.30
2019-03-27T04:43:58.692Z,19.00
2019-03-27T04:46:29.623Z,17.23
2019-03-27T04:49:00.679Z,20.00
2019-03-27T04:51:31.715Z,17.67
2019-03-27T04:54:02.705Z,18.87
2019-03-27T04:56:33.660Z,18.50
2019-03-27T04:59:04.847Z,17.33
2019-03-27T05:01:35.802Z,18.30
2019-03-27T05:04:07.931Z,19.03
2019-03-27T05:06:38.911Z,18.77
2019-03-27T05:09:10.489Z,18.27
2019-03-27T05:11:41.572Z,15.50
2019-03-27T05:14:12.496Z,17.53
2019-03-27T05:16:43.851Z,19.73
2019-03-27T05:19:15.042Z,16.40
2019-03-27T05:21:45.910Z,16.90
2019-03-27T05:24:16.959Z,16.67
2019-03-27T05:26:47.827Z,18.17
2019-03-27T05:29:18.790Z,13.33
2019-03-27T05:31:49.834Z,15.97
2019-03-27T05:34:21.238Z,20.40
2019-03-27T05:36:57.467Z,15.50
2019-03-27T05:39:30.033Z,14.13
2019-03-27T05:42:00.916Z,15.03
2019-03-27T05:44:31.823Z,13.20
2019-03-27T05:47:04.928Z,14.90
2019-03-27T05:49:36.061Z,12.70
2019-03-27T05:52:07.064Z,14.60
2019-03-27T05:54:38.279Z,16.60
2019-03-27T05:57:09.433Z,15.03
2019-03-27T05:59:44.145Z,12.30
2019-03-27T06:02:15.359Z,15.23
2019-03-27T06:04:46.301Z,16.63
2019-03-27T06:07:19.346Z,12.40
2019-03-27T06:09:50.279Z,16.83
2019-03-27T06:12:21.253Z,16.73
2019-03-27T06:14:53.868Z,18.23
2019-03-27T06:17:28.127Z,17.50
2019-03-27T06:19:59.206Z,16.37
2019-03-27T06:22:30.240Z,15.40
2019-03-27T06:25:01.281Z,17.70
2019-03-27T06:27:32.274Z,16.53
2019-03-27T06:30:03.841Z,16.00
2019-03-27T06:32:35.974Z,16.20
2019-03-27T06:35:08.544Z,16.20
2019-03-27T06:37:39.623Z,15.07
2019-03-27T06:40:10.974Z,14.17
2019-03-27T06:42:42.138Z,14.80
2019-03-27T06:45:13.175Z,16.00
2019-03-27T06:47:44.255Z,15.40
2019-03-27T06:50:16.312Z,13.60
2019-03-27T06:52:47.636Z,14.83
2019-03-27T06:55:18.966Z,15.07
2019-03-27T06:57:50.004Z,15.57
2019-03-27T07:00:24.115Z,13.37
2019-03-27T07:02:55.256Z,11.33
2019-03-27T07:05:26.433Z,12.23
2019-03-27T07:07:57.666Z,11.40
2019-03-27T07:10:28.684Z,12.03
2019-03-27T07:12:59.692Z,11.07
2019-03-27T07:15:31.082Z,12.57
2019-03-27T07:18:02.058Z,12.97
2019-03-27T07:20:33.108Z,10.70
2019-03-27T07:23:04.606Z,12.43
2019-03-27T07:25:36.524Z,9.60
2019-03-27T07:28:07.619Z,12.27
2019-03-27T07:30:38.600Z,11.87
2019-03-27T07:33:09.833Z,9.97
2019-03-27T07:35:40.869Z,8.60
2019-03-27T07:38:11.832Z,9.77
2019-03-27T07:40:43.132Z,9.53
2019-03-27T07:43:14.084Z,11.53
2019-03-27T07:45:45.156Z,13.00
2019-03-27T07:48:16.046Z,11.20
2019-03-27T07:50:47.043Z,11.57
2019-03-27T07:53:17.958Z,11.77
2019-03-27T07:55:48.940Z,9.47
2019-03-27T07:58:20.026Z,11.00
2019-03-27T08:00:50.900Z,12.30
2019-03-27T08:03:21.924Z,8.57
2019-03-27T08:05:53.058Z,12.37
2019-03-27T08:08:24.277Z,10.43
2019-03-27T08:10:55.374Z,11.50
2019-03-27T08:13:26.514Z,10.23
2019-03-27T08:15:57.542Z,8.37
2019-03-27T08:18:28.562Z,10.20
2019-03-27T08:20:59.585Z,8.43
2019-03-27T08:23:30.736Z,10.63
2019-03-27T08:26:01.731Z,9.77
2019-03-27T08:28:32.606Z,11.23
2019-03-27T08:31:03.679Z,8.70
2019-03-27T08:33:34.586Z,7.00
2019-03-27T08:36:05.576Z,9.60
2019-03-27T08:38:36.683Z,7.83
2019-03-27T08:41:07.629Z,5.77
2019-03-27T08:43:38.556Z,7.57
2019-03-27T08:46:09.588Z,8.43
2019-03-27T08:48:40.522Z,8.17
2019-03-27T08:51:11.468Z,6.33
2019-03-27T08:53:42.421Z,5.80
2019-03-27T08:56:13.517Z,6.97
2019-03-27T08:58:44.726Z,6.93
2019-03-27T09:01:15.729Z,4.03
2019-03-27T09:03:46.904Z,4.30
2019-03-27T09:06:17.866Z,2.93
2019-03-27T09:08:48.897Z,4.23
2019-03-27T09:11:20.387Z,4.47
2019-03-27T09:13:51.371Z,5.90
2019-03-27T09:16:22.429Z,5.20
2019-03-27T09:18:53.493Z,4.47
2019-03-27T09:21:24.543Z,4.13
2019-03-27T09:23:55.430Z,4.70
2019-03-27T09:26:26.645Z,4.70
2019-03-27T09:28:57.509Z,3.80
2019-03-27T09:31:28.493Z,3.70
2019-03-27T09:33:59.503Z,4.87
2019-03-27T09:36:30.531Z,5.73
2019-03-27T09:39:01.493Z,6.33
2019-03-27T09:41:32.614Z,4.87
2019-03-27T09:44:04.316Z,4.70
2019-03-27T09:46:35.307Z,3.30
2019-03-27T09:49:06.196Z,4.13
2019-03-27T09:51:37.183Z,6.77
2019-03-27T09:54:08.247Z,2.53
2019-03-27T09:56:41.945Z,2.47
2019-03-27T09:59:14.526Z,2.97
2019-03-27T10:01:45.598Z,3.20
2019-03-27T10:04:16.566Z,2.17
2019-03-27T10:06:47.441Z,4.67
2019-03-27T10:09:18.418Z,3.27
2019-03-27T10:11:49.337Z,2.90
2019-03-27T10:14:37.711Z,2.90
2019-03-27T10:17:08.797Z,3.03
2019-03-27T10:19:39.977Z,2.60
2019-03-27T10:22:10.886Z,2.17
2019-03-27T10:24:41.820Z,1.40
2019-03-27T10:27:12.859Z,2.77
2019-03-27T10:29:43.764Z,2.77
2019-03-27T10:32:14.698Z,2.43
2019-03-27T10:34:47.169Z,3.87
2019-03-27T10:37:26.660Z,2.67
2019-03-27T10:39:57.562Z,2.50
2019-03-27T10:42:29.329Z,1.53
2019-03-27T10:45:00.398Z,3.60
2019-03-27T10:47:31.299Z,2.50
2019-03-27T10:50:02.334Z,2.87
2019-03-27T10:52:33.292Z,2.13
2019-03-27T10:55:05.302Z,2.70
2019-03-27T10:57:36.210Z,2.57
2019-03-27T11:00:11.114Z,4.00
2019-03-27T11:02:42.232Z,2.37
2019-03-27T11:05:13.405Z,2.23
2019-03-27T11:07:44.830Z,2.80
2019-03-27T11:10:16.098Z,2.67
2019-03-27T11:12:47.117Z,2.97
2019-03-27T11:15:18.598Z,2.03
2019-03-27T11:17:49.615Z,2.57
2019-03-27T11:20:30.775Z,4.13
2019-03-27T11:22:53.602Z,2.27
2019-03-27T11:25:24.573Z,2.87
2019-03-27T11:27:55.542Z,2.67
2019-03-27T11:30:37.948Z,2.60
2019-03-27T11:33:09.397Z,3.10
2019-03-27T11:35:40.630Z,4.97
2019-03-27T11:38:11.675Z,2.67
2019-03-27T11:40:42.702Z,2.07
2019-03-27T11:43:13.744Z,4.87
2019-03-27T11:45:44.781Z,3.67
2019-03-27T11:48:15.984Z,3.53
2019-03-27T11:50:46.999Z,1.30
2019-03-27T11:53:18.000Z,3.83
2019-03-27T11:55:49.100Z,3.57
2019-03-27T11:58:20.664Z,1.73
2019-03-27T12:00:54.857Z,2.73
2019-03-27T12:03:24.282Z,3.70
2019-03-27T12:05:55.672Z,1.50
2019-03-27T12:08:26.758Z,3.80
2019-03-27T12:10:57.708Z,3.40
2019-03-27T12:13:28.748Z,1.67
2019-03-27T12:15:59.704Z,2.83
2019-03-27T12:18:32.162Z,1.70
2019-03-27T12:21:03.454Z,4.57
2019-03-27T12:23:35.258Z,2.67
2019-03-27T12:26:07.970Z,2.40
2019-03-27T12:28:44.629Z,3.87
2019-03-27T12:31:23.650Z,5.87
2019-03-27T12:33:55.180Z,4.00
2019-03-27T12:36:26.181Z,2.50
2019-03-27T12:38:57.184Z,3.00
2019-03-27T12:41:28.264Z,2.77
2019-03-27T12:44:02.430Z,3.80
2019-03-27T12:46:32.146Z,3.00
2019-03-27T12:49:03.278Z,2.33
2019-03-27T12:51:34.464Z,5.97
2019-03-27T12:54:06.604Z,3.73
2019-03-27T12:56:37.987Z,2.37
2019-03-27T12:59:09.022Z,2.67
2019-03-27T13:01:40.041Z,3.80
2019-03-27T13:04:12.862Z,2.63
2019-03-27T13:06:44.097Z,1.80
2019-03-27T13:09:15.723Z,2.40
2019-03-27T13:11:46.826Z,3.87
2019-03-27T13:14:18.010Z,2.13
2019-03-27T13:16:52.266Z,5.20
2019-03-27T13:19:25.037Z,8.70
2019-03-27T13:21:56.288Z,7.43
2019-03-27T13:24:30.877Z,15.30
2019-03-27T13:27:03.950Z,4.30
2019-03-27T13:29:35.243Z,4.97
2019-03-27T13:32:06.307Z,8.20
2019-03-27T13:34:37.371Z,3.23
2019-03-27T13:37:08.358Z,7.00
2019-03-27T13:39:41.028Z,2.27
2019-03-27T13:42:12.301Z,4.43
2019-03-27T13:44:43.591Z,4.77
2019-03-27T13:47:14.535Z,2.73
2019-03-27T13:49:45.667Z,5.27
2019-03-27T13:52:16.614Z,5.07
2019-03-27T13:54:47.592Z,6.03
2019-03-27T13:57:18.606Z,5.33
2019-03-27T13:59:49.675Z,4.40
2019-03-27T14:02:20.746Z,2.30
2019-03-27T14:04:52.064Z,4.87
2019-03-27T14:07:23.179Z,3.00
2019-03-27T14:09:54.144Z,3.17
2019-03-27T14:12:25.219Z,4.17
2019-03-27T14:14:57.760Z,6.63
2019-03-27T14:17:28.886Z,4.10
2019-03-27T14:20:02.838Z,3.30
2019-03-27T14:22:33.861Z,3.73
2019-03-27T14:25:07.730Z,3.80
2019-03-27T14:27:38.872Z,2.97
2019-03-27T14:30:12.625Z,2.63
2019-03-27T14:32:43.604Z,3.57
2019-03-27T14:35:14.649Z,4.53
2019-03-27T14:37:45.668Z,4.23
2019-03-27T14:40:16.877Z,2.57
2019-03-27T14:42:47.929Z,3.33
2019-03-27T14:45:18.943Z,4.03
2019-03-27T14:47:49.995Z,4.23
2019-03-27T14:50:20.897Z,4.97
2019-03-27T14:52:51.969Z,4.20
2019-03-27T14:55:22.941Z,5.27
2019-03-27T14:57:54.085Z,3.60
2019-03-27T15:00:25.270Z,4.17
2019-03-27T15:02:56.341Z,4.67
2019-03-27T15:05:27.561Z,2.60
2019-03-27T15:07:58.761Z,3.73
2019-03-27T15:10:29.605Z,4.97
2019-03-27T15:13:00.664Z,5.03
2019-03-27T15:15:31.621Z,3.10
2019-03-27T15:18:02.575Z,6.07
2019-03-27T15:20:33.579Z,4.83
2019-03-27T15:23:04.642Z,4.20
2019-03-27T15:25:35.668Z,4.63
2019-03-27T15:28:06.822Z,6.90
2019-03-27T15:30:37.791Z,5.23
2019-03-27T15:33:08.954Z,4.77
2019-03-27T15:35:39.848Z,4.63
2019-03-27T15:38:10.877Z,3.27
2019-03-27T15:40:44.390Z,3.33
2019-03-27T15:43:15.430Z,2.73
2019-03-27T15:45:46.540Z,2.20
2019-03-27T15:48:17.614Z,2.60
2019-03-27T15:50:55.516Z,3.07
2019-03-27T15:53:21.264Z,2.70
2019-03-27T15:55:52.446Z,4.63
2019-03-27T15:58:23.541Z,4.70
2019-03-27T16:00:54.570Z,3.47
2019-03-27T16:03:27.152Z,5.93
2019-03-27T16:05:58.918Z,7.07
2019-03-27T16:08:30.710Z,5.40
2019-03-27T16:11:01.692Z,3.47
2019-03-27T16:13:32.796Z,5.47
2019-03-27T16:16:03.961Z,3.37
2019-03-27T16:18:35.117Z,4.10
2019-03-27T16:21:06.466Z,3.53
2019-03-27T16:23:37.714Z,7.93
2019-03-27T16:26:09.012Z,8.87
2019-03-27T16:28:40.756Z,4.17
2019-03-27T16:31:12.242Z,3.10
2019-03-27T16:33:43.366Z,2.97
2019-03-27T16:36:14.628Z,3.20
2019-03-27T16:38:46.326Z,3.53
2019-03-27T16:41:17.496Z,3.67
2019-03-27T16:43:48.854Z,3.33
2019-03-27T16:46:19.952Z,7.43
2019-03-27T16:48:51.104Z,6.10
2019-03-27T16:51:22.138Z,3.50
2019-03-27T16:53:53.233Z,4.13
2019-03-27T16:56:25.534Z,8.13
2019-03-27T16:58:57.266Z,4.27
2019-03-27T17:01:28.875Z,4.80
2019-03-27T17:04:00.344Z,4.83
2019-03-27T17:06:31.536Z,3.83
2019-03-27T17:09:02.861Z,4.60
2019-03-27T17:11:34.030Z,5.97
2019-03-27T17:14:05.148Z,5.97
2019-03-27T17:16:36.296Z,12.57
2019-03-27T17:19:07.355Z,3.60
2019-03-27T17:21:38.371Z,5.27
2019-03-27T17:24:09.575Z,3.80
2019-03-27T17:26:40.822Z,4.97
2019-03-27T17:29:39.160Z,5.07
2019-03-27T17:32:17.661Z,3.60
2019-03-27T17:34:51.816Z,6.67
2019-03-27T17:37:21.458Z,4.53
2019-03-27T17:39:52.504Z,4.07
2019-03-27T17:42:23.684Z,5.27
2019-03-27T17:44:54.721Z,3.50
2019-03-27T17:47:25.806Z,2.73
2019-03-27T17:49:57.525Z,4.43
2019-03-27T17:52:28.671Z,2.87
2019-03-27T17:54:59.909Z,4.10
2019-03-27T17:57:30.885Z,4.43
2019-03-27T18:00:02.155Z,4.10
2019-03-27T18:02:33.171Z,3.93
2019-03-27T18:05:05.914Z,22.87
2019-03-27T18:07:36.957Z,3.90
2019-03-27T18:10:08.377Z,3.77
2019-03-27T18:12:39.393Z,3.90
2019-03-27T18:15:10.708Z,2.87
2019-03-27T18:17:41.892Z,2.00
2019-03-27T18:20:12.960Z,3.43
2019-03-27T18:22:43.993Z,5.27
2019-03-27T18:25:15.217Z,3.67
2019-03-27T18:27:46.112Z,2.40
2019-03-27T18:30:17.261Z,5.03
2019-03-27T18:32:48.239Z,3.67
2019-03-27T18:35:19.280Z,4.67
2019-03-27T18:37:50.435Z,2.93
2019-03-27T18:40:21.469Z,3.60
2019-03-27T18:42:52.601Z,1.97
2019-03-27T18:45:23.640Z,2.63
2019-03-27T18:47:54.608Z,4.67
2019-03-27T18:50:25.620Z,6.87
2019-03-27T18:52:56.765Z,3.47
2019-03-27T18:55:27.937Z,5.70
2019-03-27T18:58:00.604Z,3.63
2019-03-27T19:00:32.031Z,4.53
2019-03-27T19:03:03.323Z,7.27
2019-03-27T19:05:34.217Z,3.33
2019-03-27T19:08:05.322Z,5.47
2019-03-27T19:10:36.392Z,1.77
2019-03-27T19:13:07.688Z,4.37
2019-03-27T19:15:38.793Z,4.60
2019-03-27T19:18:10.148Z,3.33
2019-03-27T19:20:41.161Z,3.53
2019-03-27T19:23:12.234Z,4.17
2019-03-27T19:25:43.255Z,6.17
2019-03-27T19:28:14.275Z,3.87
2019-03-27T19:30:45.311Z,5.23
2019-03-27T19:33:16.342Z,7.77
2019-03-27T19:35:47.515Z,3.50
2019-03-27T19:38:18.467Z,5.90
2019-03-27T19:40:49.430Z,2.90
2019-03-27T19:43:20.372Z,4.13
2019-03-27T19:46:01.288Z,3.47
2019-03-27T19:48:35.972Z,7.57
2019-03-27T19:51:07.052Z,5.67
2019-03-27T19:53:38.040Z,3.90
2019-03-27T19:56:09.049Z,3.70
2019-03-27T19:58:40.085Z,7.03
2019-03-27T20:01:11.111Z,3.43
2019-03-27T20:03:42.078Z,4.47
2019-03-27T20:06:13.250Z,4.80
2019-03-27T20:08:44.462Z,5.47
2019-03-27T20:11:18.055Z,5.60
2019-03-27T20:13:49.560Z,6.90
2019-03-27T20:16:20.653Z,6.60
2019-03-27T20:18:51.848Z,6.03
2019-03-27T20:21:23.110Z,6.63
2019-03-27T20:23:54.050Z,6.67
2019-03-27T20:26:25.566Z,6.50
2019-03-27T20:28:56.562Z,6.70
2019-03-27T20:31:27.524Z,8.47
2019-03-27T20:33:58.538Z,8.33
2019-03-27T20:36:30.186Z,19.97
2019-03-27T20:39:04.599Z,16.27
2019-03-27T20:41:35.699Z,8.33
2019-03-27T20:44:07.026Z,7.30
2019-03-27T20:46:38.115Z,5.87
2019-03-27T20:49:09.575Z,8.23
2019-03-27T20:51:40.453Z,17.27
2019-03-27T20:54:11.502Z,7.90
2019-03-27T20:56:42.627Z,7.63
2019-03-27T20:59:13.643Z,9.73
2019-03-27T21:01:44.705Z,8.33
2019-03-27T21:04:15.717Z,5.43
2019-03-27T21:06:48.426Z,6.03
2019-03-27T21:09:19.389Z,7.10
2019-03-27T21:11:50.402Z,6.87
2019-03-27T21:14:21.682Z,5.00
2019-03-27T21:16:52.740Z,8.50
2019-03-27T21:19:23.969Z,4.37
2019-03-27T21:21:55.444Z,7.23
2019-03-27T21:24:26.537Z,6.60
2019-03-27T21:26:57.501Z,6.10
2019-03-27T21:29:28.615Z,8.10
2019-03-27T21:31:59.667Z,5.70
2019-03-27T21:34:30.910Z,7.67
2019-03-27T21:37:01.953Z,5.63
2019-03-27T21:39:32.893Z,7.17
2019-03-27T21:42:04.091Z,4.17
2019-03-27T21:44:34.974Z,5.30
2019-03-27T21:47:05.930Z,7.37
2019-03-27T21:49:36.901Z,6.47
2019-03-27T21:52:07.893Z,8.17
2019-03-27T21:54:39.002Z,21.77
2019-03-27T21:57:10.143Z,11.67
2019-03-27T21:59:41.301Z,9.87
2019-03-27T22:02:12.267Z,8.20
2019-03-27T22:04:43.372Z,7.87
2019-03-27T22:07:14.379Z,6.27
2019-03-27T22:09:45.427Z,10.07
2019-03-27T22:12:16.614Z,8.37
2019-03-27T22:14:47.613Z,8.10
2019-03-27T22:17:18.619Z,9.13
2019-03-27T22:19:49.585Z,8.97
2019-03-27T22:22:20.939Z,8.97
2019-03-27T22:24:51.919Z,7.03
2019-03-27T22:27:22.773Z,7.20
2019-03-27T22:29:53.819Z,7.13
2019-03-27T22:32:24.907Z,9.53
2019-03-27T22:34:55.781Z,10.03
2019-03-27T22:37:41.027Z,8.97
2019-03-27T22:40:12.375Z,9.13
2019-03-27T22:42:43.354Z,9.20
2019-03-27T22:45:14.590Z,8.20
2019-03-27T22:47:45.503Z,9.23
2019-03-27T22:50:16.636Z,8.10
2019-03-27T22:52:49.616Z,8.00
2019-03-27T22:55:20.659Z,7.20
2019-03-27T22:57:51.952Z,10.73
2019-03-27T23:00:25.293Z,7.60
2019-03-27T23:02:57.999Z,9.27
2019-03-27T23:05:30.313Z,9.07
2019-03-27T23:08:01.500Z,11.47
2019-03-27T23:10:32.639Z,8.37
2019-03-27T23:13:03.826Z,7.60
2019-03-27T23:15:35.463Z,8.43
2019-03-27T23:18:06.537Z,8.23
2019-03-27T23:20:37.520Z,7.77
2019-03-27T23:23:08.485Z,10.03
2019-03-27T23:25:39.543Z,9.67
2019-03-27T23:28:10.522Z,8.20
2019-03-27T23:30:41.601Z,8.43
2019-03-27T23:33:12.636Z,8.03
2019-03-27T23:35:44.216Z,6.23
2019-03-27T23:38:15.588Z,9.87
2019-03-27T23:40:46.631Z,8.63
2019-03-27T23:43:17.632Z,12.60
2019-03-27T23:45:48.672Z,8.50
2019-03-27T23:48:19.564Z,7.10
2019-03-27T23:50:50.592Z,5.33
2019-03-27T23:53:21.632Z,5.70
2019-03-27T23:55:52.747Z,9.50
2019-03-27T23:58:23.722Z,7.47
